Time;durP1;ratioP1;P1;durP2;ratioP2;P2;SDS_P1;SDS_P2;PMS_P1;PMS_P2;Temp;Humidity;BMP_temperature;BMP_pressure;BME280_temperature;BME280_humidity;BME280_pressure;Samples;Min_cycle;Max_cycle;Signal;HPM_P1;HPM_P2
2021/08/08 00:00:21;;;;;;;5.13;0.90;;;;;;;14.74;100.00;95401.81;1050038;28;20055;-69
2021/08/08 00:00:52;;;;;;;3.80;1.00;;;;;;;14.72;100.00;95398.66;1049697;28;20619;-69
2021/08/08 00:01:22;;;;;;;4.73;1.00;;;;;;;14.72;100.00;95388.69;1049888;28;20036;-69
2021/08/08 00:01:53;;;;;;;7.07;1.00;;;;;;;14.75;100.00;95393.47;1049696;28;20032;-69
2021/08/08 00:02:23;;;;;;;2.17;0.90;;;;;;;14.75;100.00;95396.16;1045500;28;20041;-69
2021/08/08 00:02:54;;;;;;;3.60;1.00;;;;;;;14.73;100.00;95389.47;1041163;28;20087;-69
2021/08/08 00:03:24;;;;;;;3.30;0.80;;;;;;;14.75;100.00;95392.69;1044101;28;20033;-68
2021/08/08 00:03:55;;;;;;;1.83;0.87;;;;;;;14.75;100.00;95389.97;1035862;28;20467;-68
2021/08/08 00:04:26;;;;;;;2.07;0.80;;;;;;;14.75;100.00;95390.78;1035798;28;20030;-69
2021/08/08 00:04:56;;;;;;;6.32;0.90;;;;;;;14.73;100.00;95384.91;1035691;28;20406;-69
2021/08/08 00:05:26;;;;;;;9.27;1.13;;;;;;;14.72;100.00;95388.69;1036199;28;20034;-68
2021/08/08 00:05:57;;;;;;;2.30;0.80;;;;;;;14.71;100.00;95389.00;1035709;28;20037;-68
2021/08/08 00:06:27;;;;;;;2.93;0.90;;;;;;;14.70;100.00;95390.13;1039990;28;20398;-68
2021/08/08 00:06:58;;;;;;;5.63;1.10;;;;;;;14.73;100.00;95386.78;1039946;28;20033;-68
2021/08/08 00:07:28;;;;;;;5.53;1.13;;;;;;;14.74;100.00;95396.44;1040106;28;20025;-69
2021/08/08 00:07:59;;;;;;;5.40;1.10;;;;;;;14.72;100.00;95393.28;1044127;28;20029;-68
2021/08/08 00:08:30;;;;;;;5.23;0.87;;;;;;;14.71;100.00;95389.81;1048205;28;20025;-68
2021/08/08 00:09:00;;;;;;;6.75;1.20;;;;;;;14.70;100.00;95390.91;1048141;28;20039;-68
2021/08/08 00:09:31;;;;;;;4.10;1.00;;;;;;;14.71;100.00;95387.13;1048190;28;20044;-68
2021/08/08 00:10:01;;;;;;;4.00;0.80;;;;;;;14.70;100.00;95384.75;1048188;28;20029;-68
2021/08/08 00:10:31;;;;;;;5.13;1.20;;;;;;;14.71;100.00;95386.31;1047982;28;20385;-68
2021/08/08 00:11:02;;;;;;;3.57;0.80;;;;;;;14.70;100.00;95385.53;1047817;28;20027;-69
2021/08/08 00:11:32;;;;;;;7.40;0.70;;;;;;;14.72;100.00;95383.31;1043756;28;20091;-69
2021/08/08 00:12:03;;;;;;;4.80;0.80;;;;;;;14.71;100.00;95389.81;1047400;28;20032;-68
2021/08/08 00:12:34;;;;;;;4.00;1.00;;;;;;;14.72;100.00;95383.31;1048175;28;20024;-68
2021/08/08 00:13:04;;;;;;;5.57;0.83;;;;;;;14.72;100.00;95387.91;1047910;28;20024;-68
2021/08/08 00:13:34;;;;;;;2.67;0.80;;;;;;;14.70;100.00;95384.75;1047932;28;20043;-68
2021/08/08 00:14:05;;;;;;;5.03;0.80;;;;;;;14.72;100.00;95390.59;1048282;28;20029;-68
2021/08/08 00:14:36;;;;;;;2.57;0.60;;;;;;;14.73;100.00;95400.25;1048484;28;20039;-68
2021/08/08 00:15:07;;;;;;;3.63;0.77;;;;;;;14.71;100.00;95400.56;1047382;28;20036;-69
2021/08/08 00:15:38;;;;;;;3.25;1.08;;;;;;;14.70;100.00;95398.97;1047717;28;20101;-68
2021/08/08 00:16:09;;;;;;;4.93;1.17;;;;;;;14.71;100.00;95399.78;1047925;28;20480;-68
2021/08/08 00:16:39;;;;;;;2.77;0.90;;;;;;;14.70;100.00;95390.13;1048943;28;20039;-68
2021/08/08 00:17:10;;;;;;;9.07;1.00;;;;;;;14.72;100.00;95395.97;1054139;28;20051;-69
2021/08/08 00:17:40;;;;;;;7.90;1.03;;;;;;;14.73;100.00;95386.78;1053540;28;20039;-68
2021/08/08 00:18:11;;;;;;;7.50;1.13;;;;;;;14.71;100.00;95392.50;1048900;28;20031;-68
2021/08/08 00:18:41;;;;;;;7.90;0.93;;;;;;;14.72;100.00;95396.75;1048885;28;20017;-68
2021/08/08 00:19:12;;;;;;;5.57;0.80;;;;;;;14.72;100.00;95390.59;1048856;28;20024;-68
2021/08/08 00:19:42;;;;;;;5.37;1.00;;;;;;;14.72;100.00;95387.91;1048824;28;20029;-68
2021/08/08 00:20:13;;;;;;;5.30;0.90;;;;;;;14.74;100.00;95386.50;1049038;28;20369;-68
2021/08/08 00:20:43;;;;;;;7.73;1.00;;;;;;;14.73;100.00;95392.97;1049216;28;20400;-68
2021/08/08 00:21:14;;;;;;;9.77;1.07;;;;;;;14.74;100.00;95389.19;1049068;28;20021;-68
2021/08/08 00:21:44;;;;;;;5.57;0.93;;;;;;;14.71;100.00;95394.41;1049107;28;20021;-68
2021/08/08 00:22:15;;;;;;;8.90;0.90;;;;;;;14.72;100.00;95394.06;1048888;28;20059;-68
2021/08/08 00:22:45;;;;;;;4.97;1.00;;;;;;;14.71;100.00;95395.19;1048680;28;20052;-68
2021/08/08 00:23:15;;;;;;;3.23;1.00;;;;;;;14.70;100.00;95393.59;1048821;28;20021;-68
2021/08/08 00:23:46;;;;;;;6.67;1.00;;;;;;;14.72;100.00;95393.28;1048783;28;20028;-68
2021/08/08 00:24:16;;;;;;;2.87;0.80;;;;;;;14.72;100.00;95401.34;1048795;28;20031;-68
2021/08/08 00:24:47;;;;;;;6.50;1.00;;;;;;;14.72;100.00;95398.66;1049307;28;20457;-68
2021/08/08 00:25:17;;;;;;;2.40;0.97;;;;;;;14.71;100.00;95400.56;1049124;28;20457;-68
2021/08/08 00:25:49;;;;;;;5.83;0.80;;;;;;;14.72;100.00;95401.34;1049122;28;20036;-68
2021/08/08 00:26:20;;;;;;;5.07;0.95;;;;;;;14.69;100.00;95405.47;1049092;28;20035;-68
2021/08/08 00:26:51;;;;;;;8.10;1.60;;;;;;;14.68;100.00;95395.78;1048854;28;20041;-68
2021/08/08 00:27:22;;;;;;;5.40;1.08;;;;;;;14.68;100.00;95395.78;1046277;28;20025;-68
2021/08/08 00:27:52;;;;;;;6.73;1.17;;;;;;;14.71;100.00;95394.41;1048748;28;20040;-68
2021/08/08 00:28:22;;;;;;;6.53;1.20;;;;;;;14.70;100.00;95400.88;1044373;28;20025;-68
2021/08/08 00:28:53;;;;;;;9.23;1.30;;;;;;;14.69;100.00;95393.88;1047490;28;20043;-68
2021/08/08 00:29:23;;;;;;;5.47;1.00;;;;;;;14.70;100.00;95398.19;1042197;28;20021;-68
2021/08/08 00:29:54;;;;;;;5.40;1.17;;;;;;;14.71;100.00;95403.25;1044273;28;20440;-68
2021/08/08 00:30:24;;;;;;;2.33;1.00;;;;;;;14.73;100.00;95403.72;1045999;28;20024;-68
2021/08/08 00:30:55;;;;;;;5.00;1.10;;;;;;;14.74;100.00;95399.13;1048060;28;20363;-68
2021/08/08 00:31:25;;;;;;;13.40;1.20;;;;;;;14.70;100.00;95398.19;1048781;28;20086;-69
2021/08/08 00:31:55;;;;;;;17.10;2.47;;;;;;;14.70;100.00;95395.50;1048626;28;20025;-68
2021/08/08 00:32:26;;;;;;;9.80;1.30;;;;;;;14.70;100.00;95390.13;1044528;28;20025;-68
2021/08/08 00:32:56;;;;;;;7.30;1.10;;;;;;;14.68;100.00;95393.09;1048839;28;20025;-68
2021/08/08 00:33:27;;;;;;;16.30;1.43;;;;;;;14.68;100.00;95397.69;1048727;28;20028;-68
2021/08/08 00:33:57;;;;;;;8.57;0.90;;;;;;;14.69;100.00;95397.41;1048682;28;20017;-68
2021/08/08 00:34:28;;;;;;;10.27;1.30;;;;;;;14.70;100.00;95398.19;1049123;28;20024;-68
2021/08/08 00:34:58;;;;;;;4.00;0.97;;;;;;;14.70;100.00;95400.88;1049079;28;20086;-68
2021/08/08 00:35:28;;;;;;;5.33;0.87;;;;;;;14.67;100.00;95386.13;1049166;28;20481;-68
2021/08/08 00:35:59;;;;;;;8.53;1.53;;;;;;;14.70;100.00;95393.59;1049073;28;20082;-68
2021/08/08 00:36:29;;;;;;;7.10;0.93;;;;;;;14.71;100.00;95391.69;1049070;28;20082;-68
2021/08/08 00:37:00;;;;;;;8.47;1.00;;;;;;;14.70;100.00;95392.81;1049109;28;20082;-68
2021/08/08 00:37:30;;;;;;;6.97;0.80;;;;;;;14.69;100.00;95389.34;1049150;28;20557;-68
2021/08/08 00:38:01;;;;;;;3.73;1.10;;;;;;;14.70;100.00;95392.81;1046392;28;20638;-68
2021/08/08 00:38:31;;;;;;;3.13;1.00;;;;;;;14.69;100.00;95392.03;1048971;28;20051;-68
2021/08/08 00:39:03;;;;;;;6.63;0.80;;;;;;;14.69;100.00;95393.88;1049069;28;20021;-68
2021/08/08 00:39:33;;;;;;;5.78;0.98;;;;;;;14.68;100.00;95387.72;1049002;28;20023;-68
2021/08/08 00:40:04;;;;;;;5.37;0.90;;;;;;;14.68;100.00;95392.31;1049136;28;20032;-68
2021/08/08 00:40:35;;;;;;;4.22;1.00;;;;;;;14.69;100.00;95386.66;1048603;28;20044;-68
2021/08/08 00:41:05;;;;;;;5.57;1.10;;;;;;;14.68;100.00;95390.41;1044593;28;20474;-68
2021/08/08 00:41:36;;;;;;;4.47;1.07;;;;;;;14.69;100.00;95391.19;1044614;28;20029;-68
2021/08/08 00:42:06;;;;;;;11.13;1.20;;;;;;;14.68;100.00;95382.34;1044798;28;20021;-68
2021/08/08 00:42:36;;;;;;;4.30;0.90;;;;;;;14.67;100.00;95388.03;1048670;28;20016;-68
2021/08/08 00:43:10;;;;;;;5.03;0.80;;;;;;;14.67;100.00;95380.75;1049111;28;20032;-68
2021/08/08 00:43:40;;;;;;;6.55;1.05;;;;;;;14.67;100.00;95388.03;1046307;28;20078;-69
2021/08/08 00:44:11;;;;;;;7.43;1.13;;;;;;;14.64;100.00;95383.28;1048980;28;20551;-68
2021/08/08 00:44:41;;;;;;;8.50;1.40;;;;;;;14.62;100.00;95380.91;1048996;28;20028;-68
2021/08/08 00:45:16;;;;;;;4.73;1.20;;;;;;;14.63;100.00;95385.16;1049088;28;20016;-68
2021/08/08 00:45:46;;;;;;;9.77;1.45;;;;;;;14.64;100.00;95392.16;1048600;28;20023;-68
2021/08/08 00:46:16;;;;;;;3.00;0.80;;;;;;;14.63;100.00;95389.75;1044637;28;20620;-68
2021/08/08 00:46:47;;;;;;;10.47;1.10;;;;;;;14.64;100.00;95383.28;1040499;28;20018;-68
2021/08/08 00:47:17;;;;;;;6.93;1.00;;;;;;;14.66;100.00;95389.94;1041563;28;20068;-68
2021/08/08 00:47:48;;;;;;;5.30;0.90;;;;;;;14.65;100.00;95382.19;1046859;28;20025;-69
2021/08/08 00:48:18;;;;;;;8.23;1.10;;;;;;;14.65;100.00;95387.56;1050715;28;20031;-68
2021/08/08 00:48:48;;;;;;;3.47;1.00;;;;;;;14.63;100.00;95387.84;1051370;28;20024;-69
2021/08/08 00:49:19;;;;;;;7.43;1.10;;;;;;;14.65;100.00;95387.56;1051406;28;20025;-69
2021/08/08 00:49:50;;;;;;;7.60;1.13;;;;;;;14.64;100.00;95383.28;1051104;28;20079;-69
2021/08/08 00:50:20;;;;;;;4.33;0.80;;;;;;;14.65;100.00;95387.56;1046669;28;20032;-69
2021/08/08 00:50:51;;;;;;;6.50;0.80;;;;;;;14.64;100.00;95386.78;1042342;28;20040;-68
2021/08/08 00:51:21;;;;;;;10.47;0.87;;;;;;;14.64;100.00;95392.16;1039272;28;20022;-69
2021/08/08 00:51:51;;;;;;;15.33;1.03;;;;;;;14.65;100.00;95390.25;1043347;28;20021;-69
2021/08/08 00:52:22;;;;;;;9.30;0.90;;;;;;;14.65;100.00;95388.34;1048889;28;20024;-69
2021/08/08 00:52:52;;;;;;;7.17;0.80;;;;;;;14.66;100.00;95389.94;1048686;28;20016;-68
2021/08/08 00:53:23;;;;;;;9.50;1.10;;;;;;;14.68;100.00;95392.31;1049105;28;20024;-68
2021/08/08 00:53:53;;;;;;;6.07;0.87;;;;;;;14.67;100.00;95391.53;1049041;28;20028;-69
2021/08/08 00:54:24;;;;;;;7.30;1.27;;;;;;;14.67;100.00;95388.03;1049108;28;20386;-68
2021/08/08 00:54:54;;;;;;;6.40;0.70;;;;;;;14.68;100.00;95389.63;1048468;28;20804;-69
2021/08/08 00:55:25;;;;;;;4.00;0.80;;;;;;;14.68;100.00;95386.94;1048813;28;20035;-69
2021/08/08 00:55:55;;;;;;;9.10;0.97;;;;;;;14.69;100.00;95393.88;1048688;28;20389;-68
2021/08/08 00:56:26;;;;;;;9.30;1.00;;;;;;;14.67;100.00;95396.91;1048805;28;20035;-68
2021/08/08 00:56:56;;;;;;;5.23;1.10;;;;;;;14.67;100.00;95396.09;1049002;28;20029;-68
2021/08/08 00:57:26;;;;;;;11.23;1.17;;;;;;;14.69;100.00;95393.88;1049084;28;20020;-68
2021/08/08 00:57:57;;;;;;;6.53;0.87;;;;;;;14.70;100.00;95395.50;1049202;28;20037;-68
2021/08/08 00:58:28;;;;;;;5.07;0.90;;;;;;;14.71;100.00;95397.88;1049116;28;20047;-68
2021/08/08 00:58:58;;;;;;;5.00;1.17;;;;;;;14.68;100.00;95387.72;1049069;28;20032;-68
2021/08/08 00:59:28;;;;;;;4.17;0.70;;;;;;;14.72;100.00;95387.91;1049072;28;20255;-68
2021/08/08 00:59:59;;;;;;;7.77;1.03;;;;;;;14.68;100.00;95390.41;1048884;28;20045;-68
2021/08/08 01:00:29;;;;;;;7.73;0.90;;;;;;;14.69;100.00;95393.88;1040415;28;20025;-68
2021/08/08 01:01:01;;;;;;;5.10;0.70;;;;;;;14.70;100.00;95390.13;1040603;28;20029;-68
2021/08/08 01:01:35;;;;;;;8.90;1.05;;;;;;;14.72;100.00;95387.91;1040469;28;20021;-68
2021/08/08 01:02:05;;;;;;;4.80;0.65;;;;;;;14.69;100.00;95391.19;1041863;28;20040;-68
2021/08/08 01:02:37;;;;;;;5.80;1.53;;;;;;;14.71;100.00;95394.41;1048897;28;20035;-68
2021/08/08 01:03:09;;;;;;;9.27;1.60;;;;;;;14.70;100.00;95387.44;1048582;28;20033;-68
2021/08/08 01:03:39;;;;;;;4.10;0.70;;;;;;;14.69;100.00;95388.50;1045361;28;20387;-68
2021/08/08 01:04:11;;;;;;;4.17;0.80;;;;;;;14.69;100.00;95388.50;1044713;28;20070;-68
2021/08/08 01:04:51;;;;;;;5.97;0.80;;;;;;;14.69;100.00;95385.81;1036407;28;20076;-68
2021/08/08 01:05:26;;;;;;;3.70;0.58;;;;;;;14.68;100.00;95382.34;1040489;28;20026;-68
2021/08/08 01:06:12;;;;;;;6.72;0.80;;;;;;;14.65;100.00;95382.19;1042705;28;20449;-68
2021/08/08 01:06:51;;;;;;;4.32;0.90;;;;;;;14.67;100.00;95390.72;1044678;28;20035;-68
2021/08/08 01:07:27;;;;;;;5.40;0.82;;;;;;;14.68;100.00;95392.31;1032406;28;20023;-68
2021/08/08 01:08:01;;;;;;;6.45;0.73;;;;;;;14.65;100.00;95385.66;1040272;28;20057;-68
2021/08/08 01:08:31;;;;;;;4.40;1.02;;;;;;;14.66;100.00;95391.84;1040422;28;20029;-68
2021/08/08 01:09:03;;;;;;;7.63;1.13;;;;;;;14.66;100.00;95379.19;1041859;28;20379;-68
2021/08/08 01:09:34;;;;;;;9.35;0.98;;;;;;;14.66;100.00;95381.09;1040853;28;20052;-68
2021/08/08 01:10:05;;;;;;;5.20;0.80;;;;;;;14.65;100.00;95388.34;1045227;28;20212;-68
2021/08/08 01:10:36;;;;;;;5.97;1.20;;;;;;;14.65;100.00;95387.56;1044567;28;20032;-68
2021/08/08 01:11:06;;;;;;;8.07;0.90;;;;;;;14.65;100.00;95387.56;1040846;28;20041;-68
2021/08/08 01:11:37;;;;;;;7.83;1.20;;;;;;;14.66;100.00;95384.56;1040471;28;20021;-68
2021/08/08 01:12:07;;;;;;;6.90;1.00;;;;;;;14.66;100.00;95389.16;1040676;28;20421;-68
2021/08/08 01:12:38;;;;;;;2.63;0.67;;;;;;;14.66;100.00;95387.25;1044775;28;20021;-68
2021/08/08 01:13:09;;;;;;;2.92;0.88;;;;;;;14.64;100.00;95391.34;1048811;28;20024;-69
2021/08/08 01:13:39;;;;;;;9.73;1.00;;;;;;;14.65;100.00;95390.25;1044496;28;20478;-68
2021/08/08 01:14:09;;;;;;;5.07;0.87;;;;;;;14.65;100.00;95392.94;1040574;28;20017;-68
2021/08/08 01:14:40;;;;;;;4.30;0.80;;;;;;;14.68;100.00;95389.63;1032204;28;20019;-68
2021/08/08 01:15:10;;;;;;;4.27;0.70;;;;;;;14.68;100.00;95392.31;1036439;28;20025;-68
2021/08/08 01:15:41;;;;;;;3.13;0.97;;;;;;;14.66;100.00;95389.16;1036389;28;20434;-68
2021/08/08 01:16:12;;;;;;;6.00;0.97;;;;;;;14.67;100.00;95388.84;1032476;28;20018;-68
2021/08/08 01:16:43;;;;;;;5.05;1.15;;;;;;;14.67;100.00;95396.09;1036351;28;20022;-68
2021/08/08 01:17:14;;;;;;;5.63;0.93;;;;;;;14.68;100.00;95393.09;1032380;28;20034;-68
2021/08/08 01:17:44;;;;;;;3.42;0.80;;;;;;;14.67;100.00;95394.22;1032774;28;20037;-68
2021/08/08 01:18:15;;;;;;;5.77;1.07;;;;;;;14.67;100.00;95399.59;1032427;28;20535;-68
2021/08/08 01:18:45;;;;;;;10.27;1.70;;;;;;;14.67;100.00;95401.50;1032545;28;20014;-68
2021/08/08 01:19:17;;;;;;;2.17;0.70;;;;;;;14.67;100.00;95404.97;1032552;28;20088;-68
2021/08/08 01:20:08;;;;;;;4.13;1.00;;;;;;;14.64;100.00;95407.47;1032540;28;20022;-68
2021/08/08 01:20:39;;;;;;;3.78;0.80;;;;;;;14.67;100.00;95412.25;1039285;28;20026;-68
2021/08/08 01:21:09;;;;;;;3.37;0.83;;;;;;;14.64;100.00;95412.84;1046702;28;20481;-68
2021/08/08 01:21:40;;;;;;;3.23;0.80;;;;;;;14.64;100.00;95410.97;1048906;28;20036;-68
2021/08/08 01:22:10;;;;;;;7.93;0.70;;;;;;;14.61;100.00;95408.91;1048598;28;20067;-68
2021/08/08 01:22:43;;;;;;;6.27;1.10;;;;;;;14.63;100.00;95411.28;1044513;28;20071;-68
2021/08/08 01:23:14;;;;;;;6.32;1.00;;;;;;;14.67;100.00;95409.56;1044657;28;20405;-68
2021/08/08 01:23:44;;;;;;;2.55;0.80;;;;;;;14.68;100.00;95405.75;1044519;28;20450;-68
2021/08/08 01:24:15;;;;;;;7.93;1.03;;;;;;;14.68;100.00;95405.75;1036852;28;20026;-68
2021/08/08 01:24:46;;;;;;;6.20;0.90;;;;;;;14.67;100.00;95398.78;1036220;28;20006;-68
2021/08/08 01:25:16;;;;;;;6.70;1.00;;;;;;;14.68;100.00;95408.44;1040493;28;20061;-68
2021/08/08 01:25:46;;;;;;;5.50;0.87;;;;;;;14.67;100.00;95401.50;1040651;28;20021;-68
2021/08/08 01:26:17;;;;;;;3.90;1.07;;;;;;;14.67;100.00;95404.19;1044568;28;20029;-68
2021/08/08 01:26:47;;;;;;;1.93;0.90;;;;;;;14.67;100.00;95404.19;1040468;28;20014;-68
2021/08/08 01:27:18;;;;;;;4.80;0.90;;;;;;;14.64;100.00;95400.22;1040525;28;20021;-68
2021/08/08 01:27:50;;;;;;;6.63;1.37;;;;;;;14.65;100.00;95401.00;1032420;28;20452;-68
2021/08/08 01:28:20;;;;;;;3.15;0.80;;;;;;;14.63;100.00;95400.50;1036921;28;20025;-68
2021/08/08 01:28:53;;;;;;;9.20;1.43;;;;;;;14.61;100.00;95410.81;1036364;28;20026;-68
2021/08/08 01:29:24;;;;;;;5.97;1.17;;;;;;;14.62;100.00;95402.41;1033024;28;20019;-68
2021/08/08 01:29:55;;;;;;;4.13;1.07;;;;;;;14.64;100.00;95407.47;1031907;28;20022;-69
2021/08/08 01:30:25;;;;;;;1.88;0.82;;;;;;;14.64;100.00;95416.38;1032853;28;20042;-68
2021/08/08 01:30:56;;;;;;;1.87;0.87;;;;;;;14.66;100.00;95416.03;1040838;28;20021;-68
2021/08/08 01:31:26;;;;;;;9.97;0.93;;;;;;;14.65;100.00;95414.47;1040723;28;20017;-68
2021/08/08 01:31:56;;;;;;;2.23;0.87;;;;;;;14.68;100.00;95413.81;1048693;28;20011;-68
2021/08/08 01:32:29;;;;;;;3.83;0.90;;;;;;;14.66;100.00;95410.66;1044498;28;20021;-68
2021/08/08 01:33:01;;;;;;;9.32;1.00;;;;;;;14.67;100.00;95420.31;1044891;28;20067;-68
2021/08/08 01:33:31;;;;;;;4.07;0.88;;;;;;;14.63;100.00;95406.69;1048665;28;20020;-69
2021/08/08 01:34:02;;;;;;;4.70;0.87;;;;;;;14.60;100.00;95411.91;1048693;28;20588;-68
2021/08/08 01:34:32;;;;;;;2.30;0.73;;;;;;;14.57;100.00;95413.31;1048978;28;20028;-68
2021/08/08 01:35:03;;;;;;;2.43;0.90;;;;;;;14.59;100.00;95416.50;1048976;28;20032;-68
2021/08/08 01:35:33;;;;;;;2.90;0.70;;;;;;;14.62;100.00;95420.44;1049005;28;20103;-68
2021/08/08 01:36:05;;;;;;;7.90;0.70;;;;;;;14.66;100.00;95424.13;1048937;28;20457;-68
2021/08/08 01:36:35;;;;;;;4.10;0.90;;;;;;;14.64;100.00;95421.75;1048735;28;20075;-68
2021/08/08 01:37:06;;;;;;;3.27;0.80;;;;;;;14.63;100.00;95425.50;1044503;28;20040;-68
2021/08/08 01:37:36;;;;;;;1.83;0.70;;;;;;;14.61;100.00;95429.63;1044659;28;20087;-68
2021/08/08 01:38:06;;;;;;;4.27;0.70;;;;;;;14.63;100.00;95419.34;1044632;28;20118;-68
2021/08/08 01:38:38;;;;;;;2.73;0.80;;;;;;;14.63;100.00;95417.44;1048644;28;20072;-68
2021/08/08 01:39:10;;;;;;;5.07;1.00;;;;;;;14.62;100.00;95425.81;1048613;28;20067;-69
2021/08/08 01:39:41;;;;;;;3.22;0.70;;;;;;;14.59;100.00;95427.25;1044454;28;20079;-69
2021/08/08 01:40:32;;;;;;;2.73;0.80;;;;;;;14.62;100.00;95421.25;1040376;28;20032;-69
2021/08/08 01:41:03;;;;;;;5.78;0.90;;;;;;;14.64;100.00;95423.59;1036283;28;20561;-69
2021/08/08 01:41:41;;;;;;;1.73;0.90;;;;;;;14.60;100.00;95423.44;1035378;28;20038;-69
2021/08/08 01:42:12;;;;;;;5.40;1.15;;;;;;;14.62;100.00;95425.81;1044253;28;20028;-69
2021/08/08 01:42:43;;;;;;;2.97;0.80;;;;;;;14.62;100.00;95417.75;1036131;28;20030;-69
2021/08/08 01:43:20;;;;;;;3.27;0.80;;;;;;;14.53;100.00;95417.72;1033500;28;20465;-68
2021/08/08 01:43:51;;;;;;;1.92;0.75;;;;;;;14.57;100.00;95416.00;1037936;28;20056;-69
2021/08/08 01:44:23;;;;;;;2.70;0.70;;;;;;;14.60;100.00;95411.91;1038521;28;20025;-69
2021/08/08 01:44:54;;;;;;;7.65;1.13;;;;;;;14.54;100.00;95409.34;1041718;28;20033;-69
2021/08/08 01:45:24;;;;;;;3.07;0.80;;;;;;;14.56;100.00;95411.72;1044445;28;20512;-69
2021/08/08 01:45:56;;;;;;;4.57;0.87;;;;;;;14.57;100.00;95408.72;1040565;28;20463;-69
2021/08/08 01:46:26;;;;;;;2.00;0.80;;;;;;;14.60;100.00;95404.63;1040637;28;20021;-69
2021/08/08 01:46:57;;;;;;;2.67;0.80;;;;;;;14.62;100.00;95407.78;1040343;28;20056;-69
2021/08/08 01:47:31;;;;;;;3.00;0.80;;;;;;;14.61;100.00;95408.91;1036305;28;20399;-69
2021/08/08 01:48:02;;;;;;;2.40;0.80;;;;;;;14.65;100.00;95406.41;1032881;28;20030;-69
2021/08/08 01:48:33;;;;;;;1.53;0.90;;;;;;;14.65;100.00;95406.41;1033477;28;20431;-69
2021/08/08 01:49:03;;;;;;;2.50;1.10;;;;;;;14.64;100.00;95405.59;1036836;28;20026;-69
2021/08/08 01:49:34;;;;;;;5.27;0.90;;;;;;;14.62;100.00;95407.78;1040596;28;20096;-69
2021/08/08 01:50:05;;;;;;;7.10;1.30;;;;;;;14.64;100.00;95419.06;1040481;28;20022;-69
2021/08/08 01:50:35;;;;;;;5.17;0.90;;;;;;;14.66;100.00;95407.97;1044632;28;20021;-69
2021/08/08 01:51:05;;;;;;;2.57;0.77;;;;;;;14.63;100.00;95411.28;1044372;28;20067;-69
2021/08/08 01:51:36;;;;;;;5.57;0.87;;;;;;;14.64;100.00;95410.97;1036447;28;20028;-69
2021/08/08 01:52:06;;;;;;;3.03;0.90;;;;;;;14.64;100.00;95420.91;1032267;28;20384;-69
2021/08/08 01:52:37;;;;;;;4.30;0.90;;;;;;;14.65;100.00;95419.84;1036211;28;20565;-69
2021/08/08 01:53:07;;;;;;;4.40;0.87;;;;;;;14.66;100.00;95421.41;1036444;28;20025;-69
2021/08/08 01:53:38;;;;;;;3.87;1.10;;;;;;;14.62;100.00;95423.13;1036303;28;20021;-69
2021/08/08 01:54:09;;;;;;;5.45;0.70;;;;;;;14.65;100.00;95422.53;1036304;28;20025;-69
2021/08/08 01:54:39;;;;;;;3.70;0.60;;;;;;;14.61;100.00;95419.66;1044184;28;20041;-69
2021/08/08 01:55:10;;;;;;;1.47;0.87;;;;;;;14.60;100.00;95420.75;1036269;28;20114;-69
2021/08/08 01:55:40;;;;;;;5.37;0.80;;;;;;;14.61;100.00;95419.66;1036228;28;20018;-69
2021/08/08 01:56:12;;;;;;;1.13;0.70;;;;;;;14.62;100.00;95423.94;1024251;28;20046;-69
2021/08/08 01:56:42;;;;;;;4.07;0.93;;;;;;;14.63;100.00;95420.13;1036294;28;20073;-69
2021/08/08 01:57:13;;;;;;;2.40;0.90;;;;;;;14.64;100.00;95421.75;1032445;28;20026;-69
2021/08/08 01:57:43;;;;;;;4.10;0.90;;;;;;;14.66;100.00;95418.72;1032611;28;20031;-69
2021/08/08 01:58:14;;;;;;;4.93;0.90;;;;;;;14.67;100.00;95417.63;1040302;28;20022;-69
2021/08/08 01:58:44;;;;;;;2.57;0.73;;;;;;;14.64;100.00;95415.53;1040353;28;20037;-69
2021/08/08 01:59:15;;;;;;;2.30;0.83;;;;;;;14.67;100.00;95423.00;1048700;28;20050;-69
2021/08/08 01:59:45;;;;;;;3.60;0.90;;;;;;;14.67;100.00;95423.78;1048504;28;20493;-69
2021/08/08 02:00:19;;;;;;;2.37;1.20;;;;;;;14.64;100.00;95421.75;1044483;28;20017;-69
2021/08/08 02:00:49;;;;;;;3.70;0.82;;;;;;;14.60;100.00;95415.38;1043975;28;20025;-69
2021/08/08 02:01:20;;;;;;;5.17;0.90;;;;;;;14.61;100.00;95422.34;1040918;28;20029;-69
2021/08/08 02:01:50;;;;;;;4.53;0.90;;;;;;;14.64;100.00;95423.59;1040704;28;20029;-69
2021/08/08 02:02:21;;;;;;;6.70;0.90;;;;;;;14.62;100.00;95423.13;1044388;28;20017;-68
2021/08/08 02:02:55;;;;;;;5.87;0.60;;;;;;;14.56;100.00;95420.59;1044454;28;20036;-69
2021/08/08 02:03:33;;;;;;;5.13;1.08;;;;;;;14.60;100.00;95431.53;1044386;28;20017;-69
2021/08/08 02:04:13;;;;;;;4.60;1.00;;;;;;;14.57;100.00;95424.84;1044680;28;20056;-69
2021/08/08 02:04:45;;;;;;;5.10;0.85;;;;;;;14.61;100.00;95425.03;1044738;28;20385;-69
2021/08/08 02:05:16;;;;;;;5.32;1.00;;;;;;;14.60;100.00;95419.97;1044718;28;20032;-69
2021/08/08 02:05:46;;;;;;;6.33;0.90;;;;;;;14.61;100.00;95422.34;1044417;28;20056;-69
2021/08/08 02:06:17;;;;;;;5.80;0.87;;;;;;;14.63;100.00;95427.41;1044485;28;20021;-69
2021/08/08 02:06:47;;;;;;;1.97;0.80;;;;;;;14.62;100.00;95425.81;1044353;28;20065;-69
2021/08/08 02:07:18;;;;;;;4.03;1.07;;;;;;;14.64;100.00;95431.69;1044477;28;20481;-69
2021/08/08 02:07:48;;;;;;;1.90;0.80;;;;;;;14.64;100.00;95428.97;1044691;28;20036;-69
2021/08/08 02:08:19;;;;;;;2.30;0.80;;;;;;;14.65;100.00;95433.28;1044503;28;20531;-69
2021/08/08 02:08:49;;;;;;;3.23;0.87;;;;;;;14.63;100.00;95432.78;1044458;28;20032;-69
2021/08/08 02:09:19;;;;;;;2.23;0.80;;;;;;;14.64;100.00;95432.50;1044448;28;20051;-69
2021/08/08 02:09:50;;;;;;;1.53;0.60;;;;;;;14.58;100.00;95436.41;1040339;28;20029;-69
2021/08/08 02:10:20;;;;;;;1.93;0.60;;;;;;;14.60;100.00;95436.91;1044417;28;20516;-69
2021/08/08 02:10:51;;;;;;;1.17;0.70;;;;;;;14.59;100.00;95442.56;1044433;28;20033;-69
2021/08/08 02:11:21;;;;;;;5.07;0.87;;;;;;;14.56;100.00;95434.03;1044439;28;20028;-69
2021/08/08 02:11:51;;;;;;;1.87;0.80;;;;;;;14.57;100.00;95440.19;1044656;28;20106;-69
2021/08/08 02:12:24;;;;;;;3.07;0.90;;;;;;;14.58;100.00;95431.03;1044619;28;20031;-69
2021/08/08 02:12:55;;;;;;;5.90;1.38;;;;;;;14.59;100.00;95431.81;1044708;28;20385;-69
2021/08/08 02:13:25;;;;;;;5.37;0.80;;;;;;;14.55;100.00;95432.44;1044609;28;20029;-69
2021/08/08 02:13:55;;;;;;;2.57;0.83;;;;;;;14.56;100.00;95428.66;1044720;28;20017;-69
2021/08/08 02:14:26;;;;;;;3.03;1.27;;;;;;;14.54;100.00;95433.56;1044609;28;20017;-69
2021/08/08 02:14:56;;;;;;;1.00;0.63;;;;;;;14.56;100.00;95435.91;1044728;28;20017;-69
2021/08/08 02:15:27;;;;;;;5.33;0.80;;;;;;;14.57;100.00;95432.91;1044722;28;20032;-69
2021/08/08 02:15:57;;;;;;;2.27;0.80;;;;;;;14.59;100.00;95431.81;1044448;28;20024;-69
2021/08/08 02:16:28;;;;;;;2.10;0.70;;;;;;;14.60;100.00;95433.41;1044561;28;20025;-69
2021/08/08 02:16:58;;;;;;;1.60;0.97;;;;;;;14.57;100.00;95438.28;1044670;28;20025;-69
2021/08/08 02:17:28;;;;;;;1.30;0.70;;;;;;;14.58;100.00;95436.41;1044656;28;20033;-69
2021/08/08 02:17:59;;;;;;;0.97;0.70;;;;;;;14.60;100.00;95430.72;1044714;28;20017;-69
2021/08/08 02:18:29;;;;;;;2.17;0.70;;;;;;;14.57;100.00;95432.91;1044654;28;20035;-69
2021/08/08 02:19:00;;;;;;;5.77;1.00;;;;;;;14.55;100.00;95437.03;1044666;28;20044;-69
2021/08/08 02:19:30;;;;;;;5.10;0.90;;;;;;;14.56;100.00;95435.91;1044653;28;20058;-69
2021/08/08 02:20:01;;;;;;;1.57;0.80;;;;;;;14.52;100.00;95424.97;1044609;28;20017;-69
2021/08/08 02:20:31;;;;;;;2.30;0.70;;;;;;;14.50;100.00;95429.09;1044210;28;20462;-69
2021/08/08 02:21:01;;;;;;;2.83;0.80;;;;;;;14.52;100.00;95437.63;1044252;28;20461;-69
2021/08/08 02:21:32;;;;;;;3.13;0.93;;;;;;;14.54;100.00;95440.81;1044258;28;20029;-69
2021/08/08 02:22:02;;;;;;;3.23;0.90;;;;;;;14.54;100.00;95441.63;1044186;28;20017;-69
2021/08/08 02:22:34;;;;;;;3.80;0.90;;;;;;;14.56;100.00;95442.09;1044427;28;20013;-69
2021/08/08 02:23:04;;;;;;;3.75;0.90;;;;;;;14.57;100.00;95440.97;1044596;28;20493;-69
2021/08/08 02:23:35;;;;;;;4.43;0.83;;;;;;;14.57;100.00;95440.19;1045596;28;20013;-69
2021/08/08 02:24:05;;;;;;;2.30;0.83;;;;;;;14.56;100.00;95442.09;1048702;28;20028;-69
2021/08/08 02:24:36;;;;;;;3.70;1.07;;;;;;;14.56;100.00;95444.00;1048634;28;20074;-69